sensor_id;sensor_type;location;lat;lon;timestamp;pressure;altitude;pressure_sealevel;temperature;humidity
49342;BME280;35210;41.606;-87.602;2023-08-21T00:00:03;99784.16;;;30.45;80.85
49342;BME280;35210;41.606;-87.602;2023-08-21T00:02:31;99789.47;;;30.40;81.01
49342;BME280;35210;41.606;-87.602;2023-08-21T00:04:59;99805.94;;;30.33;81.45
49342;BME280;35210;41.606;-87.602;2023-08-21T00:07:27;99801.69;;;30.26;81.94
49342;BME280;35210;41.606;-87.602;2023-08-21T00:09:57;99815.66;;;30.18;82.07
49342;BME280;35210;41.606;-87.602;2023-08-21T00:12:25;99821.00;;;30.13;82.21
49342;BME280;35210;41.606;-87.602;2023-08-21T00:14:53;99828.53;;;29.99;82.55
49342;BME280;35210;41.606;-87.602;2023-08-21T00:17:23;99815.00;;;29.92;82.78
49342;BME280;35210;41.606;-87.602;2023-08-21T00:19:51;99817.38;;;29.89;82.10
49342;BME280;35210;41.606;-87.602;2023-08-21T00:22:19;99818.78;;;29.80;82.67
49342;BME280;35210;41.606;-87.602;2023-08-21T00:24:47;99826.34;;;29.77;83.07
49342;BME280;35210;41.606;-87.602;2023-08-21T00:27:16;99833.00;;;29.70;83.21
49342;BME280;35210;41.606;-87.602;2023-08-21T00:29:44;99827.28;;;29.71;82.81
49342;BME280;35210;41.606;-87.602;2023-08-21T00:32:12;99831.66;;;29.72;82.18
49342;BME280;35210;41.606;-87.602;2023-08-21T00:34:40;99828.94;;;29.61;82.77
49342;BME280;35210;41.606;-87.602;2023-08-21T00:37:09;99836.38;;;29.54;83.08
49342;BME280;35210;41.606;-87.602;2023-08-21T00:39:37;99838.34;;;29.47;82.95
49342;BME280;35210;41.606;-87.602;2023-08-21T00:42:05;99846.56;;;29.40;83.45
49342;BME280;35210;41.606;-87.602;2023-08-21T00:44:35;99847.41;;;29.40;83.90
49342;BME280;35210;41.606;-87.602;2023-08-21T00:47:03;99845.38;;;29.36;84.18
49342;BME280;35210;41.606;-87.602;2023-08-21T00:49:32;99844.53;;;29.35;84.18
49342;BME280;35210;41.606;-87.602;2023-08-21T00:52:01;99863.81;;;29.34;84.24
49342;BME280;35210;41.606;-87.602;2023-08-21T00:54:30;99858.91;;;29.24;84.94
49342;BME280;35210;41.606;-87.602;2023-08-21T00:56:59;99860.75;;;29.12;85.96
49342;BME280;35210;41.606;-87.602;2023-08-21T00:59:28;99862.13;;;29.03;86.69
49342;BME280;35210;41.606;-87.602;2023-08-21T01:01:58;99874.19;;;29.07;87.05
49342;BME280;35210;41.606;-87.602;2023-08-21T01:04:29;99876.28;;;28.93;88.12
49342;BME280;35210;41.606;-87.602;2023-08-21T01:06:57;99883.16;;;28.96;88.36
49342;BME280;35210;41.606;-87.602;2023-08-21T01:09:29;99887.22;;;28.87;89.12
49342;BME280;35210;41.606;-87.602;2023-08-21T01:12:05;99885.31;;;28.87;89.17
49342;BME280;35210;41.606;-87.602;2023-08-21T01:14:44;99878.59;;;28.90;89.89
49342;BME280;35210;41.606;-87.602;2023-08-21T01:17:18;99892.91;;;28.78;90.58
49342;BME280;35210;41.606;-87.602;2023-08-21T01:19:49;99908.56;;;28.83;90.38
49342;BME280;35210;41.606;-87.602;2023-08-21T01:22:18;99911.78;;;28.73;90.36
49342;BME280;35210;41.606;-87.602;2023-08-21T01:24:48;99909.41;;;28.59;91.29
49342;BME280;35210;41.606;-87.602;2023-08-21T01:27:16;99909.03;;;28.55;91.02
49342;BME280;35210;41.606;-87.602;2023-08-21T01:29:47;99913.69;;;28.48;91.51
49342;BME280;35210;41.606;-87.602;2023-08-21T01:32:23;99921.91;;;28.41;91.27
49342;BME280;35210;41.606;-87.602;2023-08-21T01:34:55;99922.72;;;28.42;91.58
49342;BME280;35210;41.606;-87.602;2023-08-21T01:37:24;99924.50;;;28.30;91.63
49342;BME280;35210;41.606;-87.602;2023-08-21T01:39:58;99925.38;;;28.24;92.06
49342;BME280;35210;41.606;-87.602;2023-08-21T01:42:26;99929.75;;;28.25;92.60
49342;BME280;35210;41.606;-87.602;2023-08-21T01:44:54;99939.44;;;28.14;93.13
49342;BME280;35210;41.606;-87.602;2023-08-21T01:47:22;99942.00;;;28.09;93.58
49342;BME280;35210;41.606;-87.602;2023-08-21T01:49:51;99936.88;;;27.94;94.74
49342;BME280;35210;41.606;-87.602;2023-08-21T01:52:19;99947.31;;;27.91;94.90
49342;BME280;35210;41.606;-87.602;2023-08-21T01:54:50;99950.47;;;27.88;95.41
49342;BME280;35210;41.606;-87.602;2023-08-21T01:57:20;99950.09;;;27.84;96.14
49342;BME280;35210;41.606;-87.602;2023-08-21T01:59:49;99945.69;;;27.83;95.82
49342;BME280;35210;41.606;-87.602;2023-08-21T02:02:17;99953.41;;;27.86;96.35
49342;BME280;35210;41.606;-87.602;2023-08-21T02:04:45;99952.53;;;27.92;95.76
49342;BME280;35210;41.606;-87.602;2023-08-21T02:07:13;99952.13;;;27.89;95.93
49342;BME280;35210;41.606;-87.602;2023-08-21T02:09:41;99949.81;;;27.92;96.02
49342;BME280;35210;41.606;-87.602;2023-08-21T02:12:09;99950.72;;;27.79;96.51
49342;BME280;35210;41.606;-87.602;2023-08-21T02:14:39;99945.53;;;27.78;96.73
49342;BME280;35210;41.606;-87.602;2023-08-21T02:17:07;99955.94;;;27.81;96.60
49342;BME280;35210;41.606;-87.602;2023-08-21T02:19:35;99958.88;;;27.79;96.50
49342;BME280;35210;41.606;-87.602;2023-08-21T02:22:04;99958.47;;;27.76;96.76
49342;BME280;35210;41.606;-87.602;2023-08-21T02:24:32;99974.78;;;27.69;97.18
49342;BME280;35210;41.606;-87.602;2023-08-21T02:27:00;99981.91;;;27.64;97.57
49342;BME280;35210;41.606;-87.602;2023-08-21T02:29:29;99987.09;;;27.59;97.53
49342;BME280;35210;41.606;-87.602;2023-08-21T02:31:59;99977.13;;;27.59;98.07
49342;BME280;35210;41.606;-87.602;2023-08-21T02:34:27;99979.41;;;27.56;98.43
49342;BME280;35210;41.606;-87.602;2023-08-21T02:36:55;99978.78;;;27.54;98.15
49342;BME280;35210;41.606;-87.602;2023-08-21T02:39:24;99974.84;;;27.49;98.56
49342;BME280;35210;41.606;-87.602;2023-08-21T02:41:52;99968.81;;;27.47;98.63
49342;BME280;35210;41.606;-87.602;2023-08-21T02:44:21;99974.06;;;27.42;98.67
49342;BME280;35210;41.606;-87.602;2023-08-21T02:46:49;99971.97;;;27.44;99.16
49342;BME280;35210;41.606;-87.602;2023-08-21T02:49:19;99967.19;;;27.40;99.22
49342;BME280;35210;41.606;-87.602;2023-08-21T02:51:47;99969.25;;;27.44;98.56
49342;BME280;35210;41.606;-87.602;2023-08-21T02:54:15;99965.31;;;27.40;98.26
49342;BME280;35210;41.606;-87.602;2023-08-21T02:56:43;99966.56;;;27.38;98.38
49342;BME280;35210;41.606;-87.602;2023-08-21T02:59:11;99952.78;;;27.39;98.39
49342;BME280;35210;41.606;-87.602;2023-08-21T03:01:39;99949.88;;;27.34;98.67
49342;BME280;35210;41.606;-87.602;2023-08-21T03:04:07;99957.00;;;27.29;99.26
49342;BME280;35210;41.606;-87.602;2023-08-21T03:06:36;99962.81;;;27.32;98.66
49342;BME280;35210;41.606;-87.602;2023-08-21T03:09:04;99969.72;;;27.35;98.81
49342;BME280;35210;41.606;-87.602;2023-08-21T03:11:32;99960.72;;;27.34;98.42
49342;BME280;35210;41.606;-87.602;2023-08-21T03:14:00;99968.63;;;27.42;98.29
49342;BME280;35210;41.606;-87.602;2023-08-21T03:16:29;99966.13;;;27.41;98.02
49342;BME280;35210;41.606;-87.602;2023-08-21T03:18:58;99967.41;;;27.32;98.55
49342;BME280;35210;41.606;-87.602;2023-08-21T03:21:26;99980.78;;;27.27;99.25
49342;BME280;35210;41.606;-87.602;2023-08-21T03:23:57;99976.63;;;27.24;99.64
49342;BME280;35210;41.606;-87.602;2023-08-21T03:26:26;99972.88;;;27.25;99.13
49342;BME280;35210;41.606;-87.602;2023-08-21T03:28:54;99977.03;;;27.21;99.29
49342;BME280;35210;41.606;-87.602;2023-08-21T03:31:22;99975.38;;;27.20;99.39
49342;BME280;35210;41.606;-87.602;2023-08-21T03:33:50;99978.31;;;27.19;99.32
49342;BME280;35210;41.606;-87.602;2023-08-21T03:36:18;99979.97;;;27.20;99.55
49342;BME280;35210;41.606;-87.602;2023-08-21T03:38:47;99987.47;;;27.24;99.32
49342;BME280;35210;41.606;-87.602;2023-08-21T03:41:17;99988.09;;;27.26;99.22
49342;BME280;35210;41.606;-87.602;2023-08-21T03:43:45;99992.88;;;27.24;98.82
49342;BME280;35210;41.606;-87.602;2023-08-21T03:46:13;99984.75;;;27.24;99.23
49342;BME280;35210;41.606;-87.602;2023-08-21T03:48:41;99989.56;;;27.22;98.60
49342;BME280;35210;41.606;-87.602;2023-08-21T03:51:09;99993.94;;;27.23;98.30
49342;BME280;35210;41.606;-87.602;2023-08-21T03:53:37;99997.91;;;27.21;97.12
49342;BME280;35210;41.606;-87.602;2023-08-21T03:56:05;100000.41;;;27.15;97.53
49342;BME280;35210;41.606;-87.602;2023-08-21T03:58:35;100006.69;;;27.09;97.20
49342;BME280;35210;41.606;-87.602;2023-08-21T04:01:03;100004.19;;;27.08;96.25
49342;BME280;35210;41.606;-87.602;2023-08-21T04:03:31;100008.78;;;27.01;95.98
49342;BME280;35210;41.606;-87.602;2023-08-21T04:06:01;100007.91;;;26.94;95.85
49342;BME280;35210;41.606;-87.602;2023-08-21T04:08:29;100009.41;;;26.96;94.95
49342;BME280;35210;41.606;-87.602;2023-08-21T04:10:57;100005.00;;;26.89;95.25
49342;BME280;35210;41.606;-87.602;2023-08-21T04:13:27;100012.50;;;26.87;95.49
49342;BME280;35210;41.606;-87.602;2023-08-21T04:15:57;100022.31;;;26.88;93.49
49342;BME280;35210;41.606;-87.602;2023-08-21T04:18:25;100021.25;;;26.89;93.09
49342;BME280;35210;41.606;-87.602;2023-08-21T04:20:53;100015.84;;;26.89;92.60
49342;BME280;35210;41.606;-87.602;2023-08-21T04:23:21;100023.56;;;26.92;91.48
49342;BME280;35210;41.606;-87.602;2023-08-21T04:25:49;100027.53;;;26.89;90.62
49342;BME280;35210;41.606;-87.602;2023-08-21T04:28:17;100019.19;;;26.84;89.87
49342;BME280;35210;41.606;-87.602;2023-08-21T04:30:45;100020.63;;;26.80;89.49
49342;BME280;35210;41.606;-87.602;2023-08-21T04:33:15;100022.97;;;26.70;88.97
49342;BME280;35210;41.606;-87.602;2023-08-21T04:35:43;100017.97;;;26.73;88.09
49342;BME280;35210;41.606;-87.602;2023-08-21T04:38:11;100023.38;;;26.73;87.38
49342;BME280;35210;41.606;-87.602;2023-08-21T04:40:39;100017.13;;;26.73;87.04
49342;BME280;35210;41.606;-87.602;2023-08-21T04:43:07;100019.22;;;26.71;87.13
49342;BME280;35210;41.606;-87.602;2023-08-21T04:45:36;100025.88;;;26.62;87.15
49342;BME280;35210;41.606;-87.602;2023-08-21T04:48:05;100026.72;;;26.56;87.05
49342;BME280;35210;41.606;-87.602;2023-08-21T04:50:34;100019.22;;;26.58;87.16
49342;BME280;35210;41.606;-87.602;2023-08-21T04:53:03;100024.84;;;26.56;86.78
49342;BME280;35210;41.606;-87.602;2023-08-21T04:55:31;100015.88;;;26.56;86.12
49342;BME280;35210;41.606;-87.602;2023-08-21T04:57:59;100020.47;;;26.55;86.41
49342;BME280;35210;41.606;-87.602;2023-08-21T05:00:27;100014.41;;;26.53;86.29
49342;BME280;35210;41.606;-87.602;2023-08-21T05:02:55;100018.78;;;26.54;86.52
49342;BME280;35210;41.606;-87.602;2023-08-21T05:05:24;100018.38;;;26.57;86.05
49342;BME280;35210;41.606;-87.602;2023-08-21T05:07:55;100016.09;;;26.54;86.90
49342;BME280;35210;41.606;-87.602;2023-08-21T05:10:23;100013.78;;;26.51;87.33
49342;BME280;35210;41.606;-87.602;2023-08-21T05:12:51;100014.81;;;26.50;87.48
49342;BME280;35210;41.606;-87.602;2023-08-21T05:15:19;100016.91;;;26.48;87.34
49342;BME280;35210;41.606;-87.602;2023-08-21T05:17:48;100017.13;;;26.46;86.98
49342;BME280;35210;41.606;-87.602;2023-08-21T05:20:16;100009.19;;;26.45;86.53
49342;BME280;35210;41.606;-87.602;2023-08-21T05:22:44;100021.06;;;26.50;86.20
49342;BME280;35210;41.606;-87.602;2023-08-21T05:25:14;100025.25;;;26.53;85.93
49342;BME280;35210;41.606;-87.602;2023-08-21T05:27:42;100020.25;;;26.50;86.09
49342;BME280;35210;41.606;-87.602;2023-08-21T05:30:11;100020.03;;;26.45;86.78
49342;BME280;35210;41.606;-87.602;2023-08-21T05:32:39;100025.03;;;26.48;86.39
49342;BME280;35210;41.606;-87.602;2023-08-21T05:35:08;100036.47;;;26.43;86.41
49342;BME280;35210;41.606;-87.602;2023-08-21T05:37:36;100036.69;;;26.48;86.58
49342;BME280;35210;41.606;-87.602;2023-08-21T05:40:05;100048.97;;;26.44;86.60
49342;BME280;35210;41.606;-87.602;2023-08-21T05:42:36;100046.28;;;26.44;86.43
49342;BME280;35210;41.606;-87.602;2023-08-21T05:45:05;100045.22;;;26.39;86.48
49342;BME280;35210;41.606;-87.602;2023-08-21T05:47:33;100051.88;;;26.36;86.73
49342;BME280;35210;41.606;-87.602;2023-08-21T05:50:02;100055.44;;;26.37;86.63
49342;BME280;35210;41.606;-87.602;2023-08-21T05:52:31;100050.00;;;26.37;86.70
49342;BME280;35210;41.606;-87.602;2023-08-21T05:54:59;100050.78;;;26.31;86.48
49342;BME280;35210;41.606;-87.602;2023-08-21T05:57:27;100045.78;;;26.28;87.12
49342;BME280;35210;41.606;-87.602;2023-08-21T05:59:57;100045.38;;;26.31;87.17
49342;BME280;35210;41.606;-87.602;2023-08-21T06:02:26;100052.88;;;26.29;87.09
49342;BME280;35210;41.606;-87.602;2023-08-21T06:04:54;100051.22;;;26.28;87.56
49342;BME280;35210;41.606;-87.602;2023-08-21T06:07:22;100063.72;;;26.29;87.56
49342;BME280;35210;41.606;-87.602;2023-08-21T06:09:50;100055.59;;;26.29;87.56
49342;BME280;35210;41.606;-87.602;2023-08-21T06:12:19;100052.88;;;26.29;87.55
49342;BME280;35210;41.606;-87.602;2023-08-21T06:14:47;100033.53;;;26.32;87.58
49342;BME280;35210;41.606;-87.602;2023-08-21T06:17:16;100024.13;;;26.28;87.77
49342;BME280;35210;41.606;-87.602;2023-08-21T06:19:44;100017.94;;;26.34;87.27
49342;BME280;35210;41.606;-87.602;2023-08-21T06:22:13;100008.91;;;26.20;88.04
49342;BME280;35210;41.606;-87.602;2023-08-21T06:24:41;100009.75;;;26.20;88.24
49342;BME280;35210;41.606;-87.602;2023-08-21T06:27:09;100001.22;;;26.24;87.76
49342;BME280;35210;41.606;-87.602;2023-08-21T06:29:38;99997.88;;;26.22;88.03
49342;BME280;35210;41.606;-87.602;2023-08-21T06:32:06;99994.34;;;26.14;88.73
49342;BME280;35210;41.606;-87.602;2023-08-21T06:34:36;99993.28;;;26.15;88.73
49342;BME280;35210;41.606;-87.602;2023-08-21T06:37:04;99997.69;;;26.23;88.44
49342;BME280;35210;41.606;-87.602;2023-08-21T06:39:33;99999.78;;;26.28;88.19
49342;BME280;35210;41.606;-87.602;2023-08-21T06:42:02;100004.13;;;26.22;88.28
49342;BME280;35210;41.606;-87.602;2023-08-21T06:44:30;100011.63;;;26.20;88.72
49342;BME280;35210;41.606;-87.602;2023-08-21T06:46:59;100009.94;;;26.12;89.16
49342;BME280;35210;41.606;-87.602;2023-08-21T06:49:27;100004.94;;;26.16;89.24
49342;BME280;35210;41.606;-87.602;2023-08-21T06:51:58;100007.03;;;26.14;89.26
49342;BME280;35210;41.606;-87.602;2023-08-21T06:54:26;100002.44;;;26.08;89.75
49342;BME280;35210;41.606;-87.602;2023-08-21T06:56:55;100007.41;;;26.04;89.77
49342;BME280;35210;41.606;-87.602;2023-08-21T06:59:23;99998.25;;;26.05;89.96
49342;BME280;35210;41.606;-87.602;2023-08-21T07:01:51;100005.56;;;26.05;90.07
49342;BME280;35210;41.606;-87.602;2023-08-21T07:04:19;99998.47;;;26.04;89.99
49342;BME280;35210;41.606;-87.602;2023-08-21T07:06:47;100016.78;;;26.02;90.38
49342;BME280;35210;41.606;-87.602;2023-08-21T07:09:17;100014.50;;;26.05;90.33
49342;BME280;35210;41.606;-87.602;2023-08-21T07:11:45;100015.75;;;26.09;90.62
49342;BME280;35210;41.606;-87.602;2023-08-21T07:14:13;100021.19;;;26.09;91.03
49342;BME280;35210;41.606;-87.602;2023-08-21T07:16:43;100021.19;;;26.09;91.12
49342;BME280;35210;41.606;-87.602;2023-08-21T07:19:11;100019.09;;;26.11;91.23
49342;BME280;35210;41.606;-87.602;2023-08-21T07:21:39;100005.78;;;26.10;91.45
49342;BME280;35210;41.606;-87.602;2023-08-21T07:24:07;100008.06;;;26.06;91.49
49342;BME280;35210;41.606;-87.602;2023-08-21T07:26:37;100010.75;;;26.06;91.78
49342;BME280;35210;41.606;-87.602;2023-08-21T07:29:05;100017.81;;;26.01;92.48
49342;BME280;35210;41.606;-87.602;2023-08-21T07:31:34;100013.25;;;25.95;92.74
49342;BME280;35210;41.606;-87.602;2023-08-21T07:34:02;100026.56;;;25.96;92.69
49342;BME280;35210;41.606;-87.602;2023-08-21T07:36:31;100034.88;;;26.01;92.61
49342;BME280;35210;41.606;-87.602;2023-08-21T07:38:59;100035.31;;;25.98;92.99
49342;BME280;35210;41.606;-87.602;2023-08-21T07:41:27;100031.16;;;26.02;93.15
49342;BME280;35210;41.606;-87.602;2023-08-21T07:43:57;100032.81;;;25.97;93.59
49342;BME280;35210;41.606;-87.602;2023-08-21T07:46:25;100034.06;;;25.94;94.03
49342;BME280;35210;41.606;-87.602;2023-08-21T07:48:53;100027.59;;;25.89;94.49
49342;BME280;35210;41.606;-87.602;2023-08-21T07:51:22;100031.97;;;25.90;94.69
49342;BME280;35210;41.606;-87.602;2023-08-21T07:53:50;100033.22;;;25.87;95.41
49342;BME280;35210;41.606;-87.602;2023-08-21T07:56:18;100033.59;;;25.84;95.77
49342;BME280;35210;41.606;-87.602;2023-08-21T07:58:46;100035.69;;;25.82;96.14
49342;BME280;35210;41.606;-87.602;2023-08-21T08:01:16;100049.00;;;25.83;96.38
49342;BME280;35210;41.606;-87.602;2023-08-21T08:03:44;100041.09;;;25.82;96.81
49342;BME280;35210;41.606;-87.602;2023-08-21T08:06:12;100030.69;;;25.79;97.19
49342;BME280;35210;41.606;-87.602;2023-08-21T08:08:40;100036.88;;;25.73;97.78
49342;BME280;35210;41.606;-87.602;2023-08-21T08:11:08;100037.94;;;25.72;98.27
49342;BME280;35210;41.606;-87.602;2023-08-21T08:13:36;100028.97;;;25.71;98.30
49342;BME280;35210;41.606;-87.602;2023-08-21T08:16:04;100027.31;;;25.70;98.27
49342;BME280;35210;41.606;-87.602;2023-08-21T08:18:34;100028.97;;;25.71;98.38
49342;BME280;35210;41.606;-87.602;2023-08-21T08:21:03;100033.56;;;25.71;98.57
49342;BME280;35210;41.606;-87.602;2023-08-21T08:23:31;100025.22;;;25.66;98.89
49342;BME280;35210;41.606;-87.602;2023-08-21T08:25:59;100029.31;;;25.62;98.98
49342;BME280;35210;41.606;-87.602;2023-08-21T08:28:28;100021.81;;;25.57;99.43
49342;BME280;35210;41.606;-87.602;2023-08-21T08:30:56;100034.72;;;25.62;99.27
49342;BME280;35210;41.606;-87.602;2023-08-21T08:33:24;100025.97;;;25.60;99.14
49342;BME280;35210;41.606;-87.602;2023-08-21T08:35:54;100025.97;;;25.60;98.91
49342;BME280;35210;41.606;-87.602;2023-08-21T08:38:22;100020.16;;;25.63;98.64
49342;BME280;35210;41.606;-87.602;2023-08-21T08:40:51;100020.56;;;25.60;99.15
49342;BME280;35210;41.606;-87.602;2023-08-21T08:43:25;100025.56;;;25.63;98.87
49342;BME280;35210;41.606;-87.602;2023-08-21T08:45:58;100025.22;;;25.66;98.98
49342;BME280;35210;41.606;-87.602;2023-08-21T08:48:26;100037.69;;;25.67;98.10
49342;BME280;35210;41.606;-87.602;2023-08-21T08:50:56;100033.16;;;25.74;98.21
49342;BME280;35210;41.606;-87.602;2023-08-21T08:53:26;100035.22;;;25.72;98.23
49342;BME280;35210;41.606;-87.602;2023-08-21T08:55:55;100038.13;;;25.70;98.41
49342;BME280;35210;41.606;-87.602;2023-08-21T08:58:23;100036.50;;;25.76;97.71
49342;BME280;35210;41.606;-87.602;2023-08-21T09:00:52;100039.19;;;25.76;97.24
49342;BME280;35210;41.606;-87.602;2023-08-21T09:03:20;100033.56;;;25.71;96.92
49342;BME280;35210;41.606;-87.602;2023-08-21T09:05:48;100030.16;;;25.62;97.86
49342;BME280;35210;41.606;-87.602;2023-08-21T09:08:18;100028.69;;;25.60;98.25
49342;BME280;35210;41.606;-87.602;2023-08-21T09:10:46;100031.78;;;25.57;98.44
49342;BME280;35210;41.606;-87.602;2023-08-21T09:13:15;100033.66;;;25.56;98.50
49342;BME280;35210;41.606;-87.602;2023-08-21T09:15:44;100040.53;;;25.59;98.26
49342;BME280;35210;41.606;-87.602;2023-08-21T09:18:13;100032.19;;;25.53;98.46
49342;BME280;35210;41.606;-87.602;2023-08-21T09:20:42;100031.34;;;25.53;98.63
49342;BME280;35210;41.606;-87.602;2023-08-21T09:23:14;100031.16;;;25.54;98.47
49342;BME280;35210;41.606;-87.602;2023-08-21T09:25:45;100031.16;;;25.54;98.44
49342;BME280;35210;41.606;-87.602;2023-08-21T09:28:14;100035.53;;;25.55;98.37
49342;BME280;35210;41.606;-87.602;2023-08-21T09:30:50;100033.66;;;25.56;98.39
49342;BME280;35210;41.606;-87.602;2023-08-21T09:33:19;100032.19;;;25.53;98.37
49342;BME280;35210;41.606;-87.602;2023-08-21T09:35:49;100033.84;;;25.54;98.31
49342;BME280;35210;41.606;-87.602;2023-08-21T09:38:18;100030.53;;;25.52;98.24
49342;BME280;35210;41.606;-87.602;2023-08-21T09:40:52;100033.22;;;25.52;98.25
49342;BME280;35210;41.606;-87.602;2023-08-21T09:43:22;100030.53;;;25.52;98.19
49342;BME280;35210;41.606;-87.602;2023-08-21T09:45:53;100036.56;;;25.54;97.84
49342;BME280;35210;41.606;-87.602;2023-08-21T09:48:22;100037.84;;;25.59;97.57
49342;BME280;35210;41.606;-87.602;2023-08-21T09:50:53;100043.88;;;25.61;97.28
49342;BME280;35210;41.606;-87.602;2023-08-21T09:53:22;100040.34;;;25.60;97.12
49342;BME280;35210;41.606;-87.602;2023-08-21T09:55:54;100044.34;;;25.64;96.84
49342;BME280;35210;41.606;-87.602;2023-08-21T09:58:22;100037.22;;;25.63;96.72
49342;BME280;35210;41.606;-87.602;2023-08-21T10:00:52;100041.16;;;25.61;96.72
49342;BME280;35210;41.606;-87.602;2023-08-21T10:03:24;100038.88;;;25.58;96.63
49342;BME280;35210;41.606;-87.602;2023-08-21T10:05:55;100036.56;;;25.54;97.08
49342;BME280;35210;41.606;-87.602;2023-08-21T10:08:25;100038.00;;;25.50;97.10
49342;BME280;35210;41.606;-87.602;2023-08-21T10:10:55;100043.22;;;25.52;97.18
49342;BME280;35210;41.606;-87.602;2023-08-21T10:13:24;100039.66;;;25.51;97.41
49342;BME280;35210;41.606;-87.602;2023-08-21T10:15:52;100037.19;;;25.57;96.99
49342;BME280;35210;41.606;-87.602;2023-08-21T10:18:22;100039.91;;;25.57;96.88
49342;BME280;35210;41.606;-87.602;2023-08-21T10:20:51;100044.03;;;25.52;96.98
49342;BME280;35210;41.606;-87.602;2023-08-21T10:23:27;100050.28;;;25.53;96.91
49342;BME280;35210;41.606;-87.602;2023-08-21T10:25:57;100054.63;;;25.47;97.38
49342;BME280;35210;41.606;-87.602;2023-08-21T10:28:42;100050.44;;;25.45;97.61
49342;BME280;35210;41.606;-87.602;2023-08-21T10:31:29;100040.91;;;25.49;97.38
49342;BME280;35210;41.606;-87.602;2023-08-21T10:33:58;100047.53;;;25.46;97.17
49342;BME280;35210;41.606;-87.602;2023-08-21T10:39:53;100044.56;;;25.35;97.52
49342;BME280;35210;41.606;-87.602;2023-08-21T10:42:39;100049.97;;;25.35;97.45
49342;BME280;35210;41.606;-87.602;2023-08-21T10:45:11;100054.97;;;25.38;97.69
49342;BME280;35210;41.606;-87.602;2023-08-21T10:47:40;100055.38;;;25.35;97.87
49342;BME280;35210;41.606;-87.602;2023-08-21T10:50:09;100061.41;;;25.37;97.88
49342;BME280;35210;41.606;-87.602;2023-08-21T10:52:38;100060.97;;;25.33;97.81
49342;BME280;35210;41.606;-87.602;2023-08-21T10:55:08;100057.41;;;25.26;98.33
49342;BME280;35210;41.606;-87.602;2023-08-21T10:57:39;100056.78;;;25.24;98.47
49342;BME280;35210;41.606;-87.602;2023-08-21T11:00:09;100058.22;;;25.27;98.25
49342;BME280;35210;41.606;-87.602;2023-08-21T11:02:38;100067.59;;;25.24;98.21
49342;BME280;35210;41.606;-87.602;2023-08-21T11:05:08;100066.31;;;25.20;98.93
49342;BME280;35210;41.606;-87.602;2023-08-21T11:07:38;100076.31;;;25.19;98.84
49342;BME280;35210;41.606;-87.602;2023-08-21T11:10:08;100077.53;;;25.17;99.15
49342;BME280;35210;41.606;-87.602;2023-08-21T11:12:48;100087.69;;;25.15;99.27
49342;BME280;35210;41.606;-87.602;2023-08-21T11:15:18;100099.16;;;25.17;99.18
49342;BME280;35210;41.606;-87.602;2023-08-21T11:17:54;100106.47;;;25.23;98.97
49342;BME280;35210;41.606;-87.602;2023-08-21T11:20:27;100102.25;;;25.14;99.03
49342;BME280;35210;41.606;-87.602;2023-08-21T11:22:58;100108.03;;;25.11;99.41
49342;BME280;35210;41.606;-87.602;2023-08-21T11:25:28;100114.66;;;25.08;99.64
49342;BME280;35210;41.606;-87.602;2023-08-21T11:27:59;100112.16;;;25.07;99.70
49342;BME280;35210;41.606;-87.602;2023-08-21T11:30:31;100118.47;;;25.14;99.64
49342;BME280;35210;41.606;-87.602;2023-08-21T11:33:14;100120.91;;;25.09;99.67
49342;BME280;35210;41.606;-87.602;2023-08-21T11:35:44;100124.84;;;25.06;100.00
49342;BME280;35210;41.606;-87.602;2023-08-21T11:38:17;100127.34;;;25.08;100.00
49342;BME280;35210;41.606;-87.602;2023-08-21T11:40:52;100123.03;;;25.13;99.77
49342;BME280;35210;41.606;-87.602;2023-08-21T11:43:22;100132.63;;;25.16;99.46
49342;BME280;35210;41.606;-87.602;2023-08-21T11:45:50;100137.97;;;25.09;99.90
49342;BME280;35210;41.606;-87.602;2023-08-21T11:48:20;100138.00;;;25.16;99.83
49342;BME280;35210;41.606;-87.602;2023-08-21T11:50:50;100143.41;;;25.16;99.91
49342;BME280;35210;41.606;-87.602;2023-08-21T11:53:33;100145.53;;;25.20;99.36
49342;BME280;35210;41.606;-87.602;2023-08-21T11:56:02;100149.28;;;25.19;99.46
49342;BME280;35210;41.606;-87.602;2023-08-21T11:58:32;100146.75;;;25.18;99.92
49342;BME280;35210;41.606;-87.602;2023-08-21T12:01:04;100145.47;;;25.14;100.00
49342;BME280;35210;41.606;-87.602;2023-08-21T12:03:36;100151.78;;;25.21;99.90
49342;BME280;35210;41.606;-87.602;2023-08-21T12:06:06;100156.16;;;25.22;99.49
49342;BME280;35210;41.606;-87.602;2023-08-21T12:08:35;100160.72;;;25.21;99.18
49342;BME280;35210;41.606;-87.602;2023-08-21T12:11:03;100157.13;;;25.14;99.14
49342;BME280;35210;41.606;-87.602;2023-08-21T12:13:33;100163.31;;;25.08;99.67
49342;BME280;35210;41.606;-87.602;2023-08-21T12:16:03;100160.16;;;25.05;99.76
49342;BME280;35210;41.606;-87.602;2023-08-21T12:18:31;100169.41;;;24.96;100.00
49342;BME280;35210;41.606;-87.602;2023-08-21T12:20:59;100169.41;;;24.96;100.00
49342;BME280;35210;41.606;-87.602;2023-08-21T12:23:28;100176.13;;;25.00;99.64
49342;BME280;35210;41.606;-87.602;2023-08-21T12:25:56;100179.84;;;24.99;99.55
49342;BME280;35210;41.606;-87.602;2023-08-21T12:28:24;100187.75;;;25.00;99.26
49342;BME280;35210;41.606;-87.602;2023-08-21T12:30:53;100184.88;;;25.02;99.54
49342;BME280;35210;41.606;-87.602;2023-08-21T12:33:22;100187.19;;;25.05;99.62
49342;BME280;35210;41.606;-87.602;2023-08-21T12:35:50;100189.50;;;25.08;98.63
49342;BME280;35210;41.606;-87.602;2023-08-21T12:38:18;100182.81;;;25.04;98.70
49342;BME280;35210;41.606;-87.602;2023-08-21T12:40:47;100181.59;;;25.06;98.55
49342;BME280;35210;41.606;-87.602;2023-08-21T12:43:15;100189.03;;;25.04;98.59
49342;BME280;35210;41.606;-87.602;2023-08-21T12:45:43;100179.47;;;25.02;99.25